Time;durP1;ratioP1;P1;durP2;ratioP2;P2;SDS_P1;SDS_P2;PMS_P1;PMS_P2;Temp;Humidity;BMP_temperature;BMP_pressure;BME280_temperature;BME280_humidity;BME280_pressure;Samples;Min_cycle;Max_cycle;Signal;HPM_P1;HPM_P2
2024/03/12 00:00:13;;;;;;;;;38.80;32.20;;;;;11.73;100.00;97895.59;5976782;29;96317;-56
2024/03/12 00:03:17;;;;;;;;;39.40;33.60;;;;;11.77;100.00;97898.63;5958845;29;97485;-57
2024/03/12 00:06:20;;;;;;;;;40.00;33.00;;;;;11.48;100.00;97899.84;5976877;29;96936;-57
2024/03/12 00:09:23;;;;;;;;;40.40;33.00;;;;;11.64;100.00;97896.25;5976923;29;96356;-57
2024/03/12 00:12:26;;;;;;;;;42.00;34.00;;;;;11.70;100.00;97889.84;5976684;29;96630;-57
2024/03/12 00:15:32;;;;;;;;;42.00;33.20;;;;;11.68;100.00;97889.28;5976384;29;96841;-57
2024/03/12 00:18:35;;;;;;;;;39.50;32.50;;;;;11.68;100.00;97897.38;5976078;29;96404;-57
2024/03/12 00:21:38;;;;;;;;;39.60;32.40;;;;;11.69;100.00;97886.34;5961362;29;96847;-57
2024/03/12 00:24:44;;;;;;;;;40.60;32.00;;;;;11.48;100.00;97880.97;5976587;29;96402;-57
2024/03/12 00:27:47;;;;;;;;;38.60;31.00;;;;;11.53;100.00;97886.44;5976628;29;96450;-57
2024/03/12 00:30:53;;;;;;;;;37.00;33.00;;;;;11.51;100.00;97880.44;5975743;29;96425;-57
2024/03/12 00:34:00;;;;;;;;;39.40;32.80;;;;;11.48;100.00;97886.38;5976574;29;96314;-57
2024/03/12 00:37:03;;;;;;;;;42.40;32.60;;;;;11.43;100.00;97883.59;5976538;29;96612;-57
2024/03/12 00:40:11;;;;;;;;;38.00;33.00;;;;;11.39;100.00;97885.16;5966956;29;96508;-57
2024/03/12 00:43:14;;;;;;;;;35.25;32.00;;;;;11.43;100.00;97876.31;5953234;29;96326;-57
2024/03/12 00:46:19;;;;;;;;;43.20;32.60;;;;;11.42;100.00;97885.47;5930242;29;96236;-57
2024/03/12 00:49:22;;;;;;;;;36.40;32.00;;;;;11.46;100.00;97875.81;5929573;29;96514;-57
2024/03/12 00:52:26;;;;;;;;;38.00;31.40;;;;;11.51;100.00;97870.47;5928954;29;100165;-57
2024/03/12 00:55:29;;;;;;;;;37.00;32.00;;;;;11.51;100.00;97862.38;5930793;29;97150;-57
2024/03/12 00:58:33;;;;;;;;;36.80;30.20;;;;;11.50;100.00;97870.72;5953333;29;96557;-57
2024/03/12 01:01:37;;;;;;;;;38.75;33.25;;;;;11.57;100.00;97879.44;5952765;29;96378;-58
2024/03/12 01:04:40;;;;;;;;;38.20;31.20;;;;;11.65;100.00;97877.13;5952792;29;96374;-57
2024/03/12 01:07:43;;;;;;;;;37.20;32.00;;;;;11.75;100.00;97875.63;5952858;29;96928;-57
2024/03/12 01:10:46;;;;;;;;;38.50;31.75;;;;;11.78;100.00;97861.63;5952795;29;96291;-57
2024/03/12 01:13:50;;;;;;;;;37.60;30.00;;;;;11.81;100.00;97871.91;5952704;29;96403;-57
2024/03/12 01:16:55;;;;;;;;;40.33;32.33;;;;;11.71;100.00;97869.88;5952318;29;96493;-57
2024/03/12 01:19:58;;;;;;;;;37.40;32.40;;;;;11.68;100.00;97867.69;5953634;29;96854;-57
2024/03/12 01:23:01;;;;;;;;;37.80;31.60;;;;;11.67;100.00;97866.88;5952503;29;96357;-57
2024/03/12 01:26:06;;;;;;;;;37.60;32.00;;;;;11.65;100.00;97858.22;5952227;29;96301;-57
2024/03/12 01:29:09;;;;;;;;;36.60;30.00;;;;;11.70;100.00;97858.28;5952698;29;96943;-57
2024/03/12 01:32:15;;;;;;;;;36.80;31.00;;;;;11.70;100.00;97860.97;5966394;29;98571;-57
2024/03/12 01:35:20;;;;;;;;;35.75;32.00;;;;;11.71;100.00;97861.78;5951790;29;96406;-57
2024/03/12 01:38:24;;;;;;;;;39.25;31.50;;;;;11.73;100.00;97864.28;5956581;29;96435;-57
2024/03/12 01:41:27;;;;;;;;;35.00;30.60;;;;;11.62;100.00;97856.03;5975081;29;96610;-57
2024/03/12 01:44:31;;;;;;;;;42.60;33.00;;;;;11.73;100.00;97862.38;5975198;29;97192;-57
2024/03/12 01:47:36;;;;;;;;;39.80;33.00;;;;;11.76;100.00;97861.88;5974810;29;96479;-57
2024/03/12 01:50:39;;;;;;;;;39.00;32.00;;;;;11.78;100.00;97854.31;5974805;29;96310;-57
2024/03/12 01:53:45;;;;;;;;;37.00;32.00;;;;;11.59;100.00;97853.00;5974559;29;96331;-57
2024/03/12 01:56:49;;;;;;;;;35.60;30.20;;;;;11.66;100.00;97857.16;5974000;29;96598;-57
2024/03/12 01:59:52;;;;;;;;;39.60;33.00;;;;;11.60;100.00;97849.25;5974757;29;96566;-57
2024/03/12 02:02:56;;;;;;;;;40.60;31.00;;;;;11.66;100.00;97853.63;5974706;29;96361;-57
2024/03/12 02:05:59;;;;;;;;;36.80;31.80;;;;;11.61;100.00;97849.00;5973607;29;96283;-57
2024/03/12 02:09:04;;;;;;;;;40.80;34.00;;;;;11.68;100.00;97846.09;5974702;29;96495;-57
2024/03/12 02:12:07;;;;;;;;;41.60;33.00;;;;;11.69;100.00;97845.84;5974217;29;96323;-57
2024/03/12 02:15:12;;;;;;;;;40.00;32.00;;;;;11.66;100.00;97846.34;5974197;29;96866;-57
2024/03/12 02:18:16;;;;;;;;;38.60;31.80;;;;;11.68;100.00;97844.19;5972752;29;96441;-57
2024/03/12 02:21:19;;;;;;;;;40.00;32.00;;;;;11.60;100.00;97846.53;5973964;29;96411;-57
2024/03/12 02:24:24;;;;;;;;;41.80;32.40;;;;;11.50;100.00;97854.53;5973947;29;96339;-57
2024/03/12 02:27:27;;;;;;;;;41.60;33.00;;;;;11.40;100.00;97849.81;5974197;29;96385;-57
2024/03/12 03:40:03;;;;;;;;;48.00;34.60;;;;;11.65;100.00;97847.41;6731944;23;98341;-57
2024/03/12 03:43:07;;;;;;;;;41.67;33.00;;;;;11.57;100.00;97822.75;5996465;29;96403;-57
2024/03/12 03:46:10;;;;;;;;;41.40;33.00;;;;;11.58;100.00;97849.47;5996036;29;96367;-57
2024/03/12 03:49:13;;;;;;;;;41.20;32.20;;;;;11.63;100.00;97849.53;5999604;29;96602;-59
2024/03/12 03:52:17;;;;;;;;;36.20;32.00;;;;;11.69;100.00;97853.13;5995554;29;96442;-58
2024/03/12 03:55:23;;;;;;;;;35.40;30.20;;;;;11.68;100.00;97856.88;5983673;29;96335;-58
2024/03/12 03:58:26;;;;;;;;;36.50;31.00;;;;;11.59;100.00;97853.81;6007339;29;96422;-58
2024/03/12 04:01:29;;;;;;;;;38.00;31.60;;;;;11.63;100.00;97859.56;5963798;29;96478;-58
2024/03/12 04:04:32;;;;;;;;;38.60;32.00;;;;;11.56;100.00;97853.53;5996267;29;96822;-58
2024/03/12 04:07:35;;;;;;;;;35.60;32.00;;;;;11.52;100.00;97850.53;5994929;29;96311;-58
2024/03/12 04:10:42;;;;;;;;;33.00;28.60;;;;;11.53;100.00;97856.72;5994683;29;96671;-59
2024/03/12 04:13:45;;;;;;;;;44.40;33.00;;;;;11.49;100.00;97855.59;5986514;29;96459;-58
2024/03/12 04:16:48;;;;;;;;;39.00;32.00;;;;;11.44;100.00;97855.53;5983731;29;96992;-58
2024/03/12 04:19:51;;;;;;;;;31.75;28.00;;;;;11.34;100.00;97856.22;5998211;29;98818;-58
2024/03/12 04:22:55;;;;;;;;;31.60;29.00;;;;;11.44;100.00;97852.81;5997372;29;96601;-58
2024/03/12 04:26:00;;;;;;;;;31.20;27.40;;;;;11.53;100.00;97856.72;5991444;29;96812;-58
2024/03/12 04:29:03;;;;;;;;;33.40;29.20;;;;;11.55;100.00;97854.59;5988968;29;96305;-58
2024/03/12 04:32:07;;;;;;;;;37.60;32.00;;;;;11.58;100.00;97862.97;5999246;29;96659;-58
2024/03/12 04:35:12;;;;;;;;;33.60;30.00;;;;;11.50;100.00;97860.75;5998432;29;96935;-58
2024/03/12 04:38:18;;;;;;;;;34.00;28.75;;;;;11.49;100.00;97860.97;5999582;29;96644;-57
2024/03/12 04:41:23;;;;;;;;;35.60;29.20;;;;;11.53;100.00;97867.53;5997341;29;96927;-57
2024/03/12 04:44:26;;;;;;;;;36.25;30.00;;;;;11.60;100.00;97860.84;5991517;29;96758;-57
2024/03/12 04:47:29;;;;;;;;;37.00;30.00;;;;;11.66;100.00;97859.84;5974971;29;99580;-57
2024/03/12 04:50:32;;;;;;;;;36.20;29.20;;;;;11.67;100.00;97868.78;6002546;29;96324;-54
2024/03/12 04:53:35;;;;;;;;;35.00;31.20;;;;;11.62;100.00;97877.63;6006696;29;96461;-53
2024/03/12 04:56:39;;;;;;;;;38.60;31.60;;;;;11.47;100.00;97880.16;5995440;29;96543;-53
2024/03/12 04:59:42;;;;;;;;;37.20;31.20;;;;;11.51;100.00;97875.06;6006569;29;96334;-54
2024/03/12 05:02:46;;;;;;;;;33.20;30.00;;;;;11.41;100.00;97870.34;6002180;29;96391;-54
2024/03/12 05:05:49;;;;;;;;;36.00;31.00;;;;;11.43;100.00;97891.69;6005593;29;96887;-53
2024/03/12 05:08:53;;;;;;;;;37.00;31.20;;;;;11.42;100.00;97890.88;6006173;29;96831;-53
2024/03/12 05:11:57;;;;;;;;;40.00;32.00;;;;;11.55;100.00;97884.28;6003556;29;97652;-53
2024/03/12 05:15:00;;;;;;;;;37.50;30.00;;;;;11.62;100.00;97891.13;6006059;29;96392;-53
2024/03/12 05:18:03;;;;;;;;;41.60;32.00;;;;;11.68;100.00;97889.28;6005614;29;96390;-53
2024/03/12 05:21:06;;;;;;;;;38.75;30.00;;;;;11.66;100.00;97888.72;6005416;29;96356;-53
2024/03/12 05:24:09;;;;;;;;;34.20;28.00;;;;;11.64;100.00;97904.34;6010760;29;96947;-53
2024/03/12 05:27:21;;;;;;;;;31.60;28.20;;;;;11.54;100.00;97898.81;6015473;29;96753;-53
2024/03/12 05:30:25;;;;;;;;;33.40;29.00;;;;;11.58;100.00;97908.09;6015086;29;96396;-52
2024/03/12 05:33:30;;;;;;;;;30.75;27.50;;;;;11.67;100.00;97903.88;6018374;29;96346;-53
2024/03/12 05:36:40;;;;;;;;;27.20;24.20;;;;;11.68;100.00;97900.91;5986337;29;96439;-53
2024/03/12 05:40:00;;;;;;;;;30.00;27.50;;;;;11.48;100.00;97914.16;6005194;29;96359;-53
2024/03/12 05:49:46;;;;;;;;;30.00;25.20;;;;;11.64;100.00;97918.66;5993705;29;96257;-52
2024/03/12 05:52:49;;;;;;;;;31.80;25.20;;;;;11.68;100.00;97921.66;6002992;29;96995;-54
2024/03/12 05:55:52;;;;;;;;;27.40;25.00;;;;;11.67;100.00;97922.75;6003366;29;96335;-53
2024/03/12 05:58:58;;;;;;;;;24.60;22.00;;;;;11.70;100.00;97924.94;6018225;29;96287;-52
2024/03/12 06:02:01;;;;;;;;;32.75;26.25;;;;;11.68;100.00;97924.38;6003698;29;96560;-54
2024/03/12 06:05:05;;;;;;;;;33.00;27.00;;;;;11.73;100.00;97927.97;6001985;29;96269;-53
2024/03/12 06:08:08;;;;;;;;;28.60;26.60;;;;;11.78;100.00;97923.72;5999744;29;96271;-52
2024/03/12 06:11:12;;;;;;;;;31.50;25.50;;;;;11.73;100.00;97937.19;6005767;29;96300;-53
2024/03/12 06:14:16;;;;;;;;;29.00;26.00;;;;;11.74;100.00;97936.91;6015778;29;96433;-53
2024/03/12 06:17:23;;;;;;;;;29.60;25.40;;;;;11.78;100.00;97938.03;5996516;29;96484;-52
2024/03/12 06:20:28;;;;;;;;;32.20;26.20;;;;;11.84;100.00;97928.09;6002738;29;96466;-52
2024/03/12 06:23:31;;;;;;;;;26.20;23.00;;;;;11.95;100.00;97937.97;6005609;29;96309;-54
2024/03/12 06:26:34;;;;;;;;;27.00;23.25;;;;;11.95;100.00;97941.47;6011055;29;97318;-53
2024/03/12 06:29:39;;;;;;;;;26.00;25.00;;;;;11.91;100.00;97939.53;6017795;29;96314;-53
2024/03/12 06:32:42;;;;;;;;;27.00;22.50;;;;;11.91;100.00;97939.53;6025895;29;96490;-52
2024/03/12 06:35:47;;;;;;;;;25.00;21.60;;;;;11.93;100.00;97938.19;6026717;29;96533;-53
2024/03/12 06:38:52;;;;;;;;;30.00;25.00;;;;;11.93;100.00;97940.09;6026410;29;96522;-53
2024/03/12 06:41:55;;;;;;;;;27.60;24.00;;;;;11.90;100.00;97943.31;6029593;29;96338;-52
2024/03/12 06:45:00;;;;;;;;;28.40;24.60;;;;;11.97;100.00;97950.13;6028871;29;96593;-53
2024/03/12 06:48:06;;;;;;;;;28.67;23.33;;;;;11.75;100.00;97924.22;6029121;29;96297;-52
2024/03/12 06:51:10;;;;;;;;;28.80;25.40;;;;;11.96;100.00;97953.91;6028866;29;96302;-52
2024/03/12 06:54:13;;;;;;;;;30.00;25.25;;;;;12.07;100.00;97966.44;6029269;29;97006;-53
2024/03/12 06:57:19;;;;;;;;;31.00;27.00;;;;;12.17;100.00;97962.25;6029023;29;96272;-52
2024/03/12 07:00:32;;;;;;;;;30.00;26.40;;;;;12.19;100.00;97973.59;6028799;29;96308;-54
2024/03/12 07:03:39;;;;;;;;;30.40;28.00;;;;;12.02;100.00;97963.69;6011591;29;96327;-53
2024/03/12 07:06:42;;;;;;;;;29.75;28.00;;;;;12.13;100.00;97961.91;6028715;29;96392;-52
2024/03/12 07:09:46;;;;;;;;;30.40;25.60;;;;;12.05;100.00;97968.59;6025773;29;96382;-56
2024/03/12 07:12:49;;;;;;;;;30.00;27.00;;;;;11.95;100.00;97971.19;6019627;29;96455;-56
2024/03/12 07:15:53;;;;;;;;;32.00;27.25;;;;;12.07;100.00;97971.84;6019446;29;96440;-58
2024/03/12 07:18:57;;;;;;;;;27.60;24.60;;;;;12.12;100.00;97982.72;6019249;29;96770;-57
2024/03/12 07:22:00;;;;;;;;;32.00;25.00;;;;;12.10;100.00;97976.78;6002260;29;96690;-57
2024/03/12 07:25:03;;;;;;;;;33.00;27.20;;;;;12.08;100.00;97970.78;6019325;29;96325;-57
2024/03/12 07:28:06;;;;;;;;;32.60;26.00;;;;;12.08;100.00;97965.38;6018178;29;96871;-57
2024/03/12 07:31:12;;;;;;;;;31.50;28.00;;;;;12.29;100.00;97981.81;6019535;29;96280;-58
2024/03/12 07:34:16;;;;;;;;;32.00;26.00;;;;;12.32;100.00;97989.41;6019934;29;96286;-57
2024/03/12 07:37:20;;;;;;;;;28.40;25.00;;;;;12.27;100.00;97984.75;6019183;29;96854;-57
2024/03/12 07:40:24;;;;;;;;;31.00;26.00;;;;;12.34;100.00;97982.69;6019067;29;96308;-58
2024/03/12 07:43:29;;;;;;;;;27.00;26.00;;;;;12.48;100.00;97981.22;6019292;29;96404;-57
2024/03/12 07:46:36;;;;;;;;;32.20;28.80;;;;;12.45;100.00;97978.22;6019263;29;96383;-56
2024/03/12 07:49:39;;;;;;;;;30.20;27.00;;;;;12.60;100.00;97986.47;6019672;29;96995;-57
2024/03/12 07:52:42;;;;;;;;;32.75;28.75;;;;;12.70;100.00;97993.84;6019144;29;96311;-57
2024/03/12 07:55:45;;;;;;;;;27.00;25.60;;;;;12.76;100.00;97993.63;6020844;29;96405;-57
2024/03/12 07:58:48;;;;;;;;;33.67;29.00;;;;;12.72;100.00;97984.41;6006496;29;98433;-57
2024/03/12 08:01:53;;;;;;;;;33.60;29.60;;;;;12.81;100.00;97992.84;6023045;29;96473;-56
2024/03/12 08:04:57;;;;;;;;;32.00;27.00;;;;;12.82;100.00;97994.47;6023164;29;96983;-57
2024/03/12 08:08:00;;;;;;;;;30.60;27.80;;;;;12.83;100.00;98002.34;6022923;29;96539;-57
2024/03/12 08:11:04;;;;;;;;;30.00;24.50;;;;;12.76;100.00;98014.44;6004995;29;96893;-57
2024/03/12 08:14:08;;;;;;;;;27.75;23.00;;;;;12.58;100.00;98011.03;6006151;29;96948;-57
2024/03/12 08:17:13;;;;;;;;;35.20;29.00;;;;;12.61;100.00;98008.91;6022948;29;96263;-56
2024/03/12 08:20:17;;;;;;;;;28.80;26.00;;;;;12.72;100.00;98006.03;6020578;28;96903;-56
2024/03/12 08:23:20;;;;;;;;;33.00;27.60;;;;;12.75;100.00;98018.25;6030329;28;96364;-55
2024/03/12 08:26:23;;;;;;;;;31.40;26.00;;;;;12.76;100.00;98023.38;6295166;23;98046;-56
2024/03/12 08:29:27;;;;;;;;;32.50;27.00;;;;;12.82;100.00;98025.06;6054217;28;96282;-56
2024/03/12 08:32:35;;;;;;;;;33.20;26.60;;;;;12.92;100.00;98019.75;6063509;23;96813;-87
2024/03/12 08:35:38;;;;;;;;;31.60;27.60;;;;;13.03;100.00;98021.47;5992946;29;96913;-87
2024/03/12 08:38:41;;;;;;;;;28.60;27.60;;;;;12.62;100.00;97978.06;5992340;29;96905;-87
2024/03/12 08:41:45;;;;;;;;;30.00;26.40;;;;;12.87;100.00;98025.09;5978193;29;96355;-87
2024/03/12 08:44:48;;;;;;;;;29.00;25.00;;;;;12.61;100.00;97949.44;5978044;29;96915;-87
2024/03/12 08:47:52;;;;;;;;;33.00;28.20;;;;;12.83;100.00;97977.19;6006333;29;96803;-87
2024/03/12 08:50:57;;;;;;;;;34.00;30.40;;;;;12.93;100.00;97969.97;5999930;29;98441;-87
2024/03/12 08:54:01;;;;;;;;;34.80;27.60;;;;;13.30;100.00;98013.28;5955971;29;96516;-87
2024/03/12 08:57:05;;;;;;;;;31.80;27.60;;;;;13.37;100.00;98022.00;5956207;29;96697;-87
2024/03/12 09:00:11;;;;;;;;;32.80;29.00;;;;;13.37;100.00;98013.91;5970861;29;96395;-87
2024/03/12 09:03:18;;;;;;;;;32.20;25.20;;;;;13.56;100.00;98016.16;5970779;29;96534;-87
2024/03/12 09:06:21;;;;;;;;;35.60;27.00;;;;;13.48;100.00;97997.72;5970770;29;97384;-87
2024/03/12 09:09:26;;;;;;;;;37.75;31.75;;;;;13.56;100.00;98019.69;5970229;29;96363;-87
2024/03/12 09:12:30;;;;;;;;;33.00;27.40;;;;;13.36;100.00;97987.06;5954796;29;97070;-87
2024/03/12 09:15:33;;;;;;;;;31.80;27.80;;;;;13.66;100.00;98033.28;5971307;29;96929;-87
2024/03/12 09:18:38;;;;;;;;;32.40;27.60;;;;;13.21;100.00;97951.78;5955664;29;96405;-87
2024/03/12 09:21:42;;;;;;;;;36.00;30.00;;;;;12.90;100.00;97900.16;5956184;29;98958;-86
2024/03/12 09:24:45;;;;;;;;;36.20;30.00;;;;;13.90;100.00;98049.94;5970699;29;97150;-87
2024/03/12 09:27:48;;;;;;;;;37.00;31.40;;;;;13.74;100.00;98011.13;5996938;29;96522;-86
2024/03/12 09:30:52;;;;;;;;;33.00;28.40;;;;;13.64;100.00;97989.41;6000002;29;96456;-86
2024/03/12 09:33:57;;;;;;;;;29.00;25.00;;;;;14.06;100.00;98051.66;6015585;29;96494;-86
2024/03/12 09:37:00;;;;;;;;;32.20;28.00;;;;;13.57;100.00;97966.34;6000521;29;96332;-87
2024/03/12 09:40:05;;;;;;;;;33.00;29.40;;;;;14.25;100.00;98052.00;5997889;23;96363;-57
2024/03/12 09:43:13;;;;;;;;;36.00;30.00;;;;;14.36;100.00;98059.13;5998120;29;96502;-57
2024/03/12 09:46:16;;;;;;;;;38.50;30.00;;;;;14.42;100.00;98057.22;5998080;29;96333;-57
2024/03/12 09:49:22;;;;;;;;;34.50;30.00;;;;;14.51;100.00;98061.91;5992176;29;96419;-57
2024/03/12 09:52:25;;;;;;;;;37.60;30.60;;;;;14.58;100.00;98062.44;5974760;29;96467;-57
2024/03/12 09:55:29;;;;;;;;;42.20;32.00;;;;;14.61;100.00;98069.25;5988994;29;97167;-57
2024/03/12 09:58:33;;;;;;;;;37.00;30.80;;;;;14.65;100.00;98068.44;5974589;29;96480;-57
2024/03/12 10:01:38;;;;;;;;;35.00;31.00;;;;;14.56;100.00;98075.44;5988748;29;97571;-56
2024/03/12 10:04:44;;;;;;;;;36.00;28.00;;;;;14.57;100.00;98070.84;5974595;29;96568;-57
2024/03/12 10:08:06;;;;;;;;;36.00;30.00;;;;;14.64;100.00;98071.41;5974455;29;96393;-56
2024/03/12 10:11:11;;;;;;;;;31.80;27.80;;;;;14.66;100.00;98064.63;5992014;29;96696;-57
2024/03/12 10:14:17;;;;;;;;;36.00;28.00;;;;;14.64;100.00;98074.13;5953912;29;96403;-57
2024/03/12 10:17:20;;;;;;;;;33.00;30.00;;;;;14.63;100.00;98073.31;5970417;29;96421;-57
2024/03/12 10:20:25;;;;;;;;;31.25;24.25;;;;;14.63;100.00;98070.59;5966418;29;96317;-57
2024/03/12 10:23:29;;;;;;;;;29.50;28.25;;;;;14.66;100.00;98071.97;5961195;29;96824;-57
2024/03/12 10:26:32;;;;;;;;;30.50;25.00;;;;;14.66;100.00;98077.41;5960224;29;96346;-57
2024/03/12 10:29:36;;;;;;;;;32.50;28.00;;;;;14.59;100.00;98077.63;5961690;29;96870;-56
2024/03/12 10:32:39;;;;;;;;;31.00;25.00;;;;;14.61;100.00;98074.66;5963490;29;96722;-57
2024/03/12 10:35:45;;;;;;;;;35.20;29.00;;;;;14.56;100.00;98063.81;5961916;29;96615;-57
2024/03/12 10:38:54;;;;;;;;;33.60;26.60;;;;;14.59;100.00;98068.69;5961266;29;96585;-57
2024/03/12 10:41:59;;;;;;;;;30.00;26.00;;;;;14.58;100.00;98057.03;6897475;23;98670;31
2024/03/12 10:45:05;;;;;;;;;30.00;25.00;;;;;14.66;100.00;98067.34;6050258;28;96462;-56
2024/03/12 10:48:10;;;;;;;;;31.00;27.00;;;;;14.71;100.00;98072.78;6196600;23;99605;-57
2024/03/12 10:51:17;;;;;;;;;28.80;25.00;;;;;14.71;100.00;98080.91;6001447;29;96402;-57
2024/03/12 11:08:04;;;;;;;;;33.00;30.00;;;;;14.71;100.00;98077.38;6378463;27;95446;-56
2024/03/12 11:11:10;;;;;;;;;35.50;28.50;;;;;14.65;100.00;98079.28;6361548;22;96599;-56
2024/03/12 11:14:13;;;;;;;;;30.60;26.60;;;;;14.66;100.00;98091.75;6445360;22;98460;-56
2024/03/12 11:17:27;;;;;;;;;32.20;28.40;;;;;14.60;100.00;98076.56;6569374;22;97959;-56
2024/03/12 11:20:33;;;;;;;;;36.80;30.00;;;;;14.66;100.00;98074.69;6315460;27;96469;-57
2024/03/12 11:23:37;;;;;;;;;35.50;30.00;;;;;14.64;100.00;98080.38;6315666;27;96308;-57
2024/03/12 11:26:41;;;;;;;;;33.00;28.40;;;;;14.61;100.00;98078.16;6314123;27;98474;-58
2024/03/12 11:30:14;;;;;;;;;36.50;30.75;;;;;14.60;100.00;98081.16;6611419;22;98353;-57
2024/03/12 11:33:42;;;;;;;;;36.00;29.60;;;;;14.59;100.00;98082.25;7461142;22;98839;-57
2024/03/12 11:36:46;;;;;;;;;35.60;27.40;;;;;14.61;100.00;98085.53;6401096;22;96231;-57
2024/03/12 11:40:28;;;;;;;;;38.00;30.00;;;;;14.61;100.00;98071.97;6354957;22;97327;-55
2024/03/12 11:43:53;;;;;;;;;39.80;32.20;;;;;14.71;100.00;98083.63;6385563;27;96051;-58
2024/03/12 11:46:56;;;;;;;;;43.40;33.00;;;;;14.78;100.00;98085.28;6351783;27;97401;-58
2024/03/12 11:50:01;;;;;;;;;43.00;32.00;;;;;14.79;100.00;98081.47;6356989;27;96275;-56
2024/03/12 11:53:15;;;;;;;;;33.75;29.00;;;;;14.70;100.00;98062.22;6366591;27;97259;-57
2024/03/12 11:56:19;;;;;;;;;40.00;29.80;;;;;14.82;100.00;98081.75;6364273;27;96711;-56
2024/03/12 11:59:27;;;;;;;;;36.40;30.60;;;;;14.85;100.00;98083.94;6355544;27;97956;-55
2024/03/12 12:02:52;;;;;;;;;35.00;29.00;;;;;14.84;100.00;98092.34;6756302;22;99033;31
2024/03/12 12:05:55;;;;;;;;;37.00;31.00;;;;;14.70;100.00;98071.16;6195553;27;98918;-57
2024/03/12 12:09:02;;;;;;;;;33.60;31.00;;;;;14.83;100.00;98096.13;6215117;27;96332;-57
2024/03/12 12:12:08;;;;;;;;;39.20;32.00;;;;;14.79;100.00;98097.75;6582676;22;98562;-56
2024/03/12 12:15:12;;;;;;;;;36.50;32.00;;;;;14.77;100.00;98099.91;6315263;27;96387;-57
2024/03/12 12:18:20;;;;;;;;;41.50;32.00;;;;;14.74;100.00;98096.69;6480623;22;98841;31
2024/03/12 12:21:23;;;;;;;;;35.80;29.60;;;;;14.73;100.00;98091.50;6287848;27;96770;-57
2024/03/12 12:24:26;;;;;;;;;36.00;30.00;;;;;14.75;100.00;98094.78;6290032;27;96368;-57
2024/03/12 12:27:32;;;;;;;;;39.00;32.40;;;;;14.76;100.00;98090.97;6287040;27;96677;-56
2024/03/12 12:30:37;;;;;;;;;36.00;31.40;;;;;14.79;100.00;98093.16;6302782;22;96299;-57
2024/03/12 12:33:44;;;;;;;;;32.50;29.00;;;;;14.72;100.00;98098.81;6301034;22;97624;-57
2024/03/12 12:36:49;;;;;;;;;32.75;28.75;;;;;14.70;100.00;98094.75;6778666;22;98273;-57
2024/03/12 12:39:53;;;;;;;;;29.20;27.60;;;;;14.71;100.00;98099.09;6301875;27;96552;-56
2024/03/12 12:42:57;;;;;;;;;33.80;25.80;;;;;14.71;100.00;98099.91;6300189;27;96651;-56
2024/03/12 12:46:05;;;;;;;;;32.50;29.00;;;;;14.71;100.00;98094.47;6391468;22;98463;-56
2024/03/12 12:49:11;;;;;;;;;32.60;28.00;;;;;14.69;100.00;98093.13;6334018;22;97783;-56
2024/03/12 12:52:14;;;;;;;;;31.00;29.40;;;;;14.69;100.00;98091.22;6963945;22;98623;-56
2024/03/12 12:55:18;;;;;;;;;27.00;25.20;;;;;14.66;100.00;98099.88;6259318;22;97648;-55
2024/03/12 13:02:14;;;;;;;;;30.00;27.00;;;;;14.65;100.00;98095.56;6250373;23;98323;-56
2024/03/12 13:05:21;;;;;;;;;33.00;27.00;;;;;14.68;100.00;98102.34;6092702;28;96545;-56
2024/03/12 13:08:29;;;;;;;;;28.40;24.40;;;;;14.66;100.00;98097.19;6092607;28;96464;-56
2024/03/12 13:11:33;;;;;;;;;33.50;27.00;;;;;14.53;100.00;98115.84;6107725;28;96427;-56
2024/03/12 13:14:36;;;;;;;;;23.20;21.40;;;;;14.68;100.00;98105.88;6107222;28;96301;-56
2024/03/12 13:17:41;;;;;;;;;28.25;24.00;;;;;14.69;100.00;98109.41;6107105;28;96590;-56
2024/03/12 13:20:44;;;;;;;;;28.20;24.20;;;;;14.68;100.00;98107.78;6092238;28;96680;-56
2024/03/12 13:23:49;;;;;;;;;29.60;25.00;;;;;14.62;100.00;98117.78;6094489;28;96958;-56
2024/03/12 13:26:52;;;;;;;;;31.25;27.00;;;;;14.55;100.00;98109.09;6092275;28;96567;-56
2024/03/12 13:29:55;;;;;;;;;32.75;26.50;;;;;14.57;100.00;98112.34;6090827;28;96515;-56
2024/03/12 13:33:02;;;;;;;;;28.00;23.20;;;;;14.44;100.00;98110.13;6087631;28;96740;-56
2024/03/12 13:36:06;;;;;;;;;29.40;26.00;;;;;14.52;100.00;98120.47;6102372;28;96438;-56
2024/03/12 13:39:12;;;;;;;;;32.00;27.60;;;;;14.47;100.00;98125.88;6091830;28;96474;-57
2024/03/12 13:42:15;;;;;;;;;28.00;24.00;;;;;14.39;100.00;98122.84;6091978;28;96420;-57
2024/03/12 13:45:19;;;;;;;;;29.60;25.20;;;;;14.33;100.00;98125.50;6091408;28;96346;-57
2024/03/12 13:48:25;;;;;;;;;29.00;25.00;;;;;14.24;100.00;98112.72;6087852;28;98363;-57
2024/03/12 13:51:28;;;;;;;;;29.60;27.20;;;;;14.28;100.00;98122.78;6089167;28;96952;-57
2024/03/12 13:54:31;;;;;;;;;29.00;27.60;;;;;14.25;100.00;98126.03;6097115;28;96388;-57
2024/03/12 13:57:34;;;;;;;;;31.80;26.40;;;;;14.21;100.00;98121.41;6091129;28;96374;-57
2024/03/12 14:00:39;;;;;;;;;30.75;26.75;;;;;14.20;100.00;98126.00;6089330;28;96620;-57
2024/03/12 14:03:44;;;;;;;;;28.60;26.60;;;;;14.12;100.00;98122.97;6089584;28;96356;-57
2024/03/12 14:06:47;;;;;;;;;33.00;28.00;;;;;14.14;100.00;98131.63;6089273;28;96543;-57
2024/03/12 14:09:51;;;;;;;;;31.75;28.75;;;;;14.07;100.00;98133.78;6094912;28;96684;-56
2024/03/12 14:16:43;;;;;;;;;39.00;31.00;;;;;13.98;100.00;98138.88;6611238;22;98433;-56
2024/03/12 14:19:46;;;;;;;;;33.25;28.25;;;;;13.98;100.00;98138.03;6416061;22;97883;-56
2024/03/12 14:22:49;;;;;;;;;33.60;26.60;;;;;13.98;100.00;98132.63;6246654;22;96780;-56
2024/03/12 14:25:53;;;;;;;;;29.50;24.50;;;;;13.94;100.00;98143.19;6207412;27;96663;-56
2024/03/12 14:28:56;;;;;;;;;32.60;29.00;;;;;13.93;100.00;98140.75;6191220;28;97278;-56
2024/03/12 14:32:00;;;;;;;;;33.40;29.00;;;;;13.89;100.00;98141.25;6551164;22;99046;-55
2024/03/12 14:35:06;;;;;;;;;34.40;28.40;;;;;13.88;100.00;98139.63;6214744;22;97274;-55
2024/03/12 14:41:50;;;;;;;;;30.00;25.00;;;;;13.79;100.00;98135.75;6449443;23;98246;-56
2024/03/12 14:44:53;;;;;;;;;33.00;29.25;;;;;13.78;100.00;98136.84;6089470;28;96878;-56
2024/03/12 14:48:20;;;;;;;;;34.33;28.67;;;;;13.78;100.00;98142.25;6112125;23;96348;31
2024/03/12 14:51:23;;;;;;;;;29.60;27.00;;;;;13.78;100.00;98141.47;6334033;23;98236;-55
2024/03/12 14:54:26;;;;;;;;;32.80;28.00;;;;;13.80;100.00;98134.69;6242176;23;97713;-55
2024/03/12 14:57:30;;;;;;;;;36.00;27.50;;;;;13.75;100.00;98126.53;6130815;28;97177;-55
2024/03/12 15:04:18;;;;;;;;;31.00;28.00;;;;;13.77;100.00;98140.66;6130183;22;97445;-55
2024/03/12 15:07:23;;;;;;;;;31.50;27.00;;;;;13.80;100.00;98145.53;6731343;22;98862;-55
2024/03/12 15:10:26;;;;;;;;;28.00;25.00;;;;;13.83;100.00;98141.47;6147651;23;98980;-56
2024/03/12 15:13:31;;;;;;;;;31.00;29.00;;;;;13.83;100.00;98145.00;6115239;28;99084;-56
2024/03/12 15:16:35;;;;;;;;;28.00;27.00;;;;;13.83;100.00;98150.41;6228940;23;98302;-57
2024/03/12 15:19:40;;;;;;;;;25.80;23.00;;;;;13.83;100.00;98145.00;6093030;28;96902;-57
2024/03/12 15:22:45;;;;;;;;;30.20;27.00;;;;;13.85;100.00;98150.16;6052754;28;97418;-57
2024/03/12 15:25:49;;;;;;;;;33.00;26.00;;;;;13.78;100.00;98149.59;6043931;28;96959;-57
2024/03/12 15:28:52;;;;;;;;;29.00;27.00;;;;;13.80;100.00;98159.06;6041962;28;96400;-57
2024/03/12 15:31:55;;;;;;;;;31.00;27.60;;;;;13.79;100.00;98157.44;6037985;28;96446;-57
2024/03/12 15:34:59;;;;;;;;;33.60;28.40;;;;;13.77;100.00;98154.19;6042696;28;96442;-57
2024/03/12 15:38:04;;;;;;;;;39.00;31.80;;;;;13.74;100.00;98156.56;6039878;28;96148;-57
2024/03/12 15:41:07;;;;;;;;;36.40;28.80;;;;;13.70;100.00;98155.47;6043015;28;96713;-57
2024/03/12 15:44:11;;;;;;;;;34.00;30.50;;;;;13.66;100.00;98171.44;6042522;28;96614;-57